createdAt,value
2019-01-19T00:02:10.248Z,19.60
2019-01-19T00:05:44.718Z,19.40
2019-01-19T00:08:58.602Z,19.40
2019-01-19T00:12:16.052Z,19.20
2019-01-19T00:15:03.135Z,19.20
2019-01-19T00:18:05.578Z,19.20
2019-01-19T00:21:21.776Z,19.10
2019-01-19T00:24:43.887Z,19.00
2019-01-19T00:27:32.934Z,19.00
2019-01-19T00:31:06.740Z,19.10
2019-01-19T00:34:05.609Z,19.10
2019-01-19T00:37:15.245Z,19.20
2019-01-19T00:40:05.261Z,19.10
2019-01-19T00:42:53.223Z,19.20
2019-01-19T00:46:00.898Z,19.00
2019-01-19T00:49:02.317Z,18.90
2019-01-19T00:51:58.574Z,18.90
2019-01-19T00:55:01.288Z,18.80
2019-01-19T00:58:23.354Z,18.70
2019-01-19T01:01:37.324Z,18.60
2019-01-19T01:04:55.290Z,18.60
2019-01-19T01:08:09.958Z,18.50
2019-01-19T01:10:51.734Z,18.40
2019-01-19T01:14:13.247Z,18.40
2019-01-19T01:16:57.966Z,18.40
2019-01-19T01:20:32.248Z,18.30
2019-01-19T01:23:38.408Z,18.40
2019-01-19T01:26:46.971Z,18.50
2019-01-19T01:29:55.083Z,18.50
2019-01-19T01:33:02.807Z,18.40
2019-01-19T01:36:21.287Z,18.40
2019-01-19T01:39:24.789Z,18.30
2019-01-19T01:42:29.773Z,18.30
2019-01-19T01:45:51.413Z,18.30
2019-01-19T01:48:44.291Z,18.20
2019-01-19T01:51:26.066Z,18.20
2019-01-19T01:54:39.758Z,18.10
2019-01-19T01:57:33.875Z,18.10
2019-01-19T02:00:25.022Z,18.10
2019-01-19T02:03:30.497Z,18.00
2019-01-19T02:06:49.338Z,17.90
2019-01-19T02:09:52.185Z,17.90
2019-01-19T02:13:15.918Z,17.80
2019-01-19T02:16:59.957Z,17.80
2019-01-19T02:20:02.540Z,17.70
2019-01-19T02:23:12.925Z,17.70
2019-01-19T02:25:59.197Z,17.60
2019-01-19T02:29:06.026Z,17.60
2019-01-19T02:31:53.631Z,17.50
2019-01-19T02:34:53.445Z,17.40
2019-01-19T02:38:04.420Z,17.40
2019-01-19T02:41:15.907Z,17.30
2019-01-19T02:44:28.535Z,17.30
2019-01-19T02:47:34.102Z,17.30
2019-01-19T02:50:44.891Z,17.30
2019-01-19T02:53:50.656Z,17.20
2019-01-19T02:57:06.809Z,17.20
2019-01-19T03:00:21.149Z,17.20
2019-01-19T03:03:11.328Z,17.10
2019-01-19T03:06:21.890Z,17.10
2019-01-19T03:09:32.798Z,17.10
2019-01-19T03:12:58.133Z,17.10
2019-01-19T03:15:56.007Z,17.10
2019-01-19T03:19:25.255Z,17.00
2019-01-19T03:22:41.211Z,17.00
2019-01-19T03:25:45.227Z,17.00
2019-01-19T03:28:41.112Z,16.90
2019-01-19T03:32:06.292Z,16.90
2019-01-19T03:35:05.115Z,16.90
2019-01-19T03:38:10.058Z,17.00
2019-01-19T03:41:28.746Z,16.90
2019-01-19T03:44:27.076Z,16.80
2019-01-19T03:47:22.610Z,16.70
2019-01-19T03:50:30.160Z,16.70
2019-01-19T03:53:46.827Z,16.70
2019-01-19T03:56:47.474Z,16.60
2019-01-19T04:00:07.676Z,16.60
2019-01-19T04:03:27.281Z,16.60
2019-01-19T04:06:39.663Z,16.50
2019-01-19T04:09:43.694Z,16.50
2019-01-19T04:12:36.920Z,16.50
2019-01-19T04:15:45.445Z,16.40
2019-01-19T04:19:02.064Z,16.40
2019-01-19T04:22:18.346Z,16.40
2019-01-19T04:25:07.440Z,16.40
2019-01-19T04:27:40.862Z,16.40
2019-01-19T04:30:15.690Z,16.40
2019-01-19T04:32:57.547Z,16.30
2019-01-19T04:35:31.506Z,16.30
2019-01-19T04:38:11.730Z,16.30
2019-01-19T04:40:45.485Z,16.30
2019-01-19T04:43:18.904Z,16.30
2019-01-19T04:45:52.308Z,16.30
2019-01-19T04:48:26.996Z,16.20
2019-01-19T04:51:01.576Z,16.20
2019-01-19T04:53:41.930Z,16.20
2019-01-19T04:56:15.848Z,16.20
2019-01-19T04:58:56.315Z,16.20
2019-01-19T05:01:29.610Z,16.20
2019-01-19T05:04:03.218Z,16.10
2019-01-19T05:06:36.635Z,16.00
2019-01-19T05:09:12.038Z,16.10
2019-01-19T05:11:45.391Z,16.10
2019-01-19T05:14:18.978Z,16.10
2019-01-19T05:16:53.174Z,16.00
2019-01-19T05:19:34.628Z,16.00
2019-01-19T05:22:08.335Z,16.00
2019-01-19T05:24:48.809Z,16.00
2019-01-19T05:27:22.513Z,15.90
2019-01-19T05:30:02.903Z,15.90
2019-01-19T05:32:36.802Z,15.90
2019-01-19T05:35:10.933Z,15.90
2019-01-19T05:37:44.909Z,15.80
2019-01-19T05:40:18.919Z,15.80
2019-01-19T05:42:52.291Z,15.80
2019-01-19T05:45:25.712Z,15.80
2019-01-19T05:47:59.023Z,15.80
2019-01-19T05:50:32.453Z,15.70
2019-01-19T05:53:05.771Z,15.70
2019-01-19T05:55:46.937Z,15.70
2019-01-19T05:58:20.253Z,15.70
2019-01-19T06:00:54.250Z,15.70
2019-01-19T06:03:28.243Z,15.70
2019-01-19T06:06:09.133Z,15.70
2019-01-19T06:08:43.216Z,15.70
2019-01-19T06:11:24.001Z,15.60
2019-01-19T06:13:58.039Z,15.60
2019-01-19T06:16:32.913Z,15.60
2019-01-19T06:19:07.718Z,15.60
2019-01-19T06:21:49.789Z,15.60
2019-01-19T06:24:23.604Z,15.60
2019-01-19T06:26:57.323Z,15.60
2019-01-19T06:29:30.999Z,15.70
2019-01-19T06:32:04.691Z,15.70
2019-01-19T06:34:38.013Z,15.70
2019-01-19T06:37:18.487Z,15.70
2019-01-19T06:39:51.874Z,15.70
2019-01-19T06:42:25.245Z,15.70
2019-01-19T06:44:59.130Z,15.70
2019-01-19T06:47:32.628Z,15.70
2019-01-19T06:50:05.934Z,15.80
2019-01-19T06:52:39.855Z,15.80
2019-01-19T06:55:14.955Z,15.80
2019-01-19T06:57:48.400Z,15.90
2019-01-19T07:00:21.735Z,15.90
2019-01-19T07:02:55.463Z,15.90
2019-01-19T07:05:29.133Z,16.00
2019-01-19T07:08:09.937Z,16.00
2019-01-19T07:10:43.257Z,16.10
2019-01-19T07:13:24.070Z,16.20
2019-01-19T07:15:57.679Z,16.20
2019-01-19T07:18:31.608Z,16.20
2019-01-19T07:21:05.611Z,16.20
2019-01-19T07:23:39.654Z,16.20
2019-01-19T07:26:13.512Z,16.20
2019-01-19T07:28:47.365Z,16.20
2019-01-19T07:31:21.394Z,16.20
2019-01-19T07:33:55.298Z,16.20
2019-01-19T07:36:29.548Z,16.20
2019-01-19T07:39:10.039Z,16.20
2019-01-19T07:41:43.971Z,16.20
2019-01-19T07:44:17.577Z,16.20
2019-01-19T07:46:55.963Z,16.20
2019-01-19T07:49:27.337Z,16.10
2019-01-19T07:52:01.808Z,16.10
2019-01-19T07:54:35.743Z,16.10
2019-01-19T07:57:09.426Z,16.00
2019-01-19T07:59:42.831Z,16.00
2019-01-19T08:02:16.245Z,16.00
2019-01-19T08:04:49.615Z,16.00
2019-01-19T08:07:23.455Z,16.10
2019-01-19T08:09:57.781Z,16.10
2019-01-19T08:12:31.753Z,16.10
2019-01-19T08:15:05.215Z,16.10
2019-01-19T08:17:39.187Z,16.10
2019-01-19T08:20:13.560Z,16.20
2019-01-19T08:22:46.990Z,16.10
2019-01-19T08:25:20.360Z,16.20
2019-01-19T08:27:53.679Z,16.30
2019-01-19T08:30:35.904Z,16.30
2019-01-19T08:33:09.691Z,16.30
2019-01-19T08:35:52.130Z,16.30
2019-01-19T08:38:25.890Z,16.30
2019-01-19T08:40:59.786Z,16.40
2019-01-19T08:43:38.816Z,16.40
2019-01-19T08:46:19.341Z,16.50
2019-01-19T08:48:52.990Z,16.50
2019-01-19T08:51:26.309Z,16.60
2019-01-19T08:53:59.579Z,16.60
2019-01-19T08:56:32.943Z,16.50
2019-01-19T08:59:06.637Z,16.60
2019-01-19T09:01:40.894Z,16.60
2019-01-19T09:04:14.372Z,16.60
2019-01-19T09:06:48.723Z,16.60
2019-01-19T09:09:22.677Z,16.50
2019-01-19T09:12:03.511Z,16.60
2019-01-19T09:14:37.342Z,16.50
2019-01-19T09:17:10.866Z,16.50
2019-01-19T09:19:44.166Z,16.50
2019-01-19T09:22:17.919Z,16.40
2019-01-19T09:24:51.638Z,16.30
2019-01-19T09:27:25.034Z,16.20
2019-01-19T09:29:58.381Z,16.20
2019-01-19T09:32:39.126Z,16.20
2019-01-19T09:35:12.908Z,16.10
2019-01-19T09:37:47.008Z,16.10
2019-01-19T09:40:21.637Z,16.00
2019-01-19T09:43:01.669Z,15.90
2019-01-19T09:45:35.106Z,15.90
2019-01-19T09:48:15.454Z,15.90
2019-01-19T09:50:48.741Z,15.80
2019-01-19T09:53:22.138Z,15.70
2019-01-19T09:55:55.549Z,15.60
2019-01-19T09:58:35.651Z,15.70
2019-01-19T10:01:09.713Z,15.60
2019-01-19T10:03:43.326Z,15.50
2019-01-19T10:06:17.468Z,15.50
2019-01-19T10:08:51.327Z,15.40
2019-01-19T10:11:25.140Z,15.40
2019-01-19T10:14:13.066Z,15.30
2019-01-19T10:16:47.039Z,15.20
2019-01-19T10:19:20.985Z,15.20
2019-01-19T10:21:55.049Z,15.10
2019-01-19T10:24:28.649Z,15.20
2019-01-19T10:27:02.276Z,15.10
2019-01-19T10:29:36.102Z,15.10
2019-01-19T10:32:09.435Z,15.00
2019-01-19T10:34:42.929Z,14.90
2019-01-19T10:37:16.265Z,15.00
2019-01-19T10:39:49.778Z,15.00
2019-01-19T10:42:23.318Z,15.10
2019-01-19T10:44:57.205Z,15.00
2019-01-19T10:47:30.967Z,15.10
2019-01-19T10:50:05.055Z,15.10
2019-01-19T10:52:38.867Z,15.10
2019-01-19T10:55:20.245Z,15.10
2019-01-19T10:57:54.050Z,15.10
2019-01-19T11:00:37.202Z,15.10
2019-01-19T11:03:10.981Z,15.10
2019-01-19T11:05:45.011Z,15.10
2019-01-19T11:08:19.108Z,15.20
2019-01-19T11:10:59.801Z,15.40
2019-01-19T11:13:33.699Z,15.30
2019-01-19T11:16:07.680Z,15.40
2019-01-19T11:18:42.061Z,15.40
2019-01-19T11:21:16.189Z,15.40
2019-01-19T11:23:49.971Z,15.50
2019-01-19T11:26:30.607Z,15.40
2019-01-19T11:29:04.542Z,15.40
2019-01-19T11:31:38.527Z,15.40
2019-01-19T11:34:12.145Z,15.30
2019-01-19T11:36:46.418Z,15.30
2019-01-19T11:39:20.287Z,15.30
2019-01-19T11:41:53.845Z,15.30
2019-01-19T11:44:27.906Z,15.40
2019-01-19T11:47:08.461Z,15.30
2019-01-19T11:49:42.342Z,15.20
2019-01-19T11:52:23.310Z,15.20
2019-01-19T11:54:56.852Z,15.30
2019-01-19T11:57:37.564Z,15.30
2019-01-19T12:00:15.908Z,15.30
2019-01-19T12:02:50.212Z,15.30
2019-01-19T12:05:24.120Z,15.20
2019-01-19T12:08:03.889Z,15.20
2019-01-19T12:10:37.401Z,15.20
2019-01-19T12:13:11.913Z,15.20
2019-01-19T12:15:45.285Z,15.10
2019-01-19T12:18:18.821Z,15.20
2019-01-19T12:20:54.028Z,15.00
2019-01-19T12:23:27.525Z,14.80
2019-01-19T12:26:00.857Z,14.70
2019-01-19T12:28:35.071Z,14.70
2019-01-19T12:31:09.029Z,14.70
2019-01-19T12:33:43.179Z,14.70
2019-01-19T12:36:16.539Z,14.80
2019-01-19T12:38:50.038Z,14.80
2019-01-19T12:41:23.388Z,14.80
2019-01-19T12:43:56.918Z,14.90
2019-01-19T12:46:30.274Z,15.00
2019-01-19T12:49:03.741Z,15.00
2019-01-19T12:51:37.041Z,15.10
2019-01-19T12:54:10.551Z,15.20
2019-01-19T12:56:43.961Z,15.30
2019-01-19T12:59:24.234Z,15.30
2019-01-19T13:01:57.933Z,15.40
2019-01-19T13:04:38.300Z,15.50
2019-01-19T13:07:15.037Z,15.50
2019-01-19T13:10:04.900Z,15.50
2019-01-19T13:12:41.826Z,15.50
2019-01-19T13:15:52.254Z,15.40
2019-01-19T13:19:16.587Z,15.50
2019-01-19T13:22:25.062Z,15.50
2019-01-19T13:25:08.489Z,15.60
2019-01-19T13:28:14.512Z,15.70
2019-01-19T13:31:09.116Z,15.80
2019-01-19T13:34:38.210Z,15.80
2019-01-19T13:37:42.699Z,15.80
2019-01-19T13:40:35.582Z,15.80
2019-01-19T13:43:55.319Z,16.00
2019-01-19T13:47:14.362Z,16.00
2019-01-19T13:50:43.272Z,15.90
2019-01-19T13:54:00.273Z,16.30
2019-01-19T13:57:26.694Z,16.50
2019-01-19T14:00:18.758Z,16.90
2019-01-19T14:03:17.660Z,17.20
2019-01-19T14:06:39.617Z,17.60
2019-01-19T14:09:46.750Z,17.90
2019-01-19T14:13:15.247Z,18.00
2019-01-19T14:16:35.974Z,18.20
2019-01-19T14:19:43.454Z,18.50
2019-01-19T14:23:29.600Z,18.60
2019-01-19T14:26:39.194Z,18.80
2019-01-19T14:29:44.021Z,18.90
2019-01-19T14:32:56.273Z,19.00
2019-01-19T14:35:52.830Z,19.20
2019-01-19T14:39:09.373Z,19.40
2019-01-19T14:41:59.734Z,19.60
2019-01-19T14:45:15.224Z,19.90
2019-01-19T14:48:36.117Z,19.90
2019-01-19T14:51:52.783Z,20.20
2019-01-19T14:55:02.549Z,20.40
2019-01-19T14:57:46.731Z,20.50
2019-01-19T15:00:57.654Z,20.70
2019-01-19T15:04:02.245Z,21.50
2019-01-19T15:07:03.861Z,21.40
2019-01-19T15:10:00.669Z,20.80
2019-01-19T15:13:14.031Z,21.10
2019-01-19T15:16:38.658Z,21.10
2019-01-19T15:19:45.793Z,21.20
2019-01-19T15:22:48.280Z,21.20
2019-01-19T15:25:54.513Z,21.50
2019-01-19T15:29:03.868Z,21.70
2019-01-19T15:32:23.499Z,21.70
2019-01-19T15:35:49.724Z,21.40
2019-01-19T15:38:59.994Z,21.20
2019-01-19T15:42:34.590Z,21.60
2019-01-19T15:45:44.212Z,21.50
2019-01-19T15:48:49.637Z,21.60
2019-01-19T15:52:05.181Z,21.70
2019-01-19T15:55:08.216Z,22.10
2019-01-19T15:58:26.002Z,22.20
2019-01-19T16:01:43.336Z,22.20
2019-01-19T16:04:55.650Z,22.10
2019-01-19T16:08:04.840Z,22.20
2019-01-19T16:10:57.543Z,22.30
2019-01-19T16:14:26.436Z,22.30
2019-01-19T16:17:24.905Z,22.20
2019-01-19T16:20:49.537Z,22.50
2019-01-19T16:23:44.724Z,22.40
2019-01-19T16:26:48.279Z,22.20
2019-01-19T16:29:57.436Z,22.30
2019-01-19T16:33:26.233Z,22.30
2019-01-19T16:36:41.285Z,22.60
2019-01-19T16:39:45.468Z,22.50
2019-01-19T16:42:50.660Z,22.90
2019-01-19T16:46:08.515Z,22.80
2019-01-19T16:49:05.503Z,22.80
2019-01-19T16:52:28.939Z,22.90
2019-01-19T16:55:37.058Z,23.00
2019-01-19T16:58:47.929Z,23.00
2019-01-19T17:02:30.879Z,23.30
2019-01-19T17:05:27.153Z,23.40
2019-01-19T17:08:36.759Z,23.50
2019-01-19T17:11:35.532Z,23.60
2019-01-19T17:14:58.458Z,23.60
2019-01-19T17:18:06.997Z,23.70
2019-01-19T17:21:21.899Z,23.90
2019-01-19T17:24:28.911Z,24.10
2019-01-19T17:27:45.815Z,24.20
2019-01-19T17:31:13.108Z,23.90
2019-01-19T17:34:12.798Z,24.00
2019-01-19T17:37:07.387Z,24.00
2019-01-19T17:40:16.298Z,24.00
2019-01-19T17:43:19.905Z,24.00
2019-01-19T17:46:54.916Z,24.20
2019-01-19T17:50:17.941Z,24.50
2019-01-19T17:53:31.786Z,24.60
2019-01-19T17:56:58.376Z,25.10
2019-01-19T18:00:32.543Z,25.20
2019-01-19T18:03:57.505Z,25.20
2019-01-19T18:07:09.602Z,24.80
2019-01-19T18:10:15.605Z,25.30
2019-01-19T18:13:11.270Z,25.30
2019-01-19T18:16:28.967Z,25.40
2019-01-19T18:19:17.029Z,25.20
2019-01-19T18:22:39.010Z,25.20
2019-01-19T18:25:21.440Z,25.40
2019-01-19T18:28:36.866Z,25.30
2019-01-19T18:31:44.330Z,25.40
2019-01-19T18:35:03.079Z,25.70
2019-01-19T18:38:00.982Z,26.10
2019-01-19T18:41:10.221Z,26.20
2019-01-19T18:44:14.021Z,26.40
2019-01-19T18:47:27.701Z,26.00
2019-01-19T18:50:48.184Z,26.10
2019-01-19T18:54:09.286Z,26.60
2019-01-19T18:57:33.391Z,26.60
2019-01-19T19:00:58.820Z,26.60
2019-01-19T19:03:57.231Z,26.50
2019-01-19T19:07:12.215Z,26.50
2019-01-19T19:10:26.032Z,26.90
2019-01-19T19:13:29.542Z,27.00
2019-01-19T19:16:40.832Z,27.20
2019-01-19T19:19:38.306Z,27.30
2019-01-19T19:22:42.092Z,27.50
2019-01-19T19:25:51.136Z,27.40
2019-01-19T19:29:02.852Z,27.30
2019-01-19T19:32:17.185Z,27.20
2019-01-19T19:35:12.133Z,27.30
2019-01-19T19:38:07.097Z,27.40
2019-01-19T19:41:25.153Z,27.30
2019-01-19T19:44:30.730Z,27.40
2019-01-19T19:47:32.169Z,27.40
2019-01-19T19:50:46.769Z,27.30
2019-01-19T19:53:19.402Z,27.50
2019-01-19T19:55:51.751Z,28.00
2019-01-19T19:58:24.661Z,28.00
2019-01-19T20:00:58.691Z,27.90
2019-01-19T20:03:32.526Z,27.50
2019-01-19T20:06:05.267Z,27.30
2019-01-19T20:08:42.138Z,27.50
2019-01-19T20:11:23.072Z,28.10
2019-01-19T20:13:55.436Z,28.20
2019-01-19T20:16:39.483Z,27.70
2019-01-19T20:19:13.095Z,28.10
2019-01-19T20:21:46.263Z,28.70
2019-01-19T20:24:30.752Z,28.40
2019-01-19T20:27:09.824Z,28.00
2019-01-19T20:29:42.704Z,28.10
2019-01-19T20:32:22.061Z,28.60
2019-01-19T20:34:57.023Z,28.80
2019-01-19T20:37:39.110Z,28.50
2019-01-19T20:40:12.748Z,28.00
2019-01-19T20:42:48.500Z,28.00
2019-01-19T20:45:24.294Z,29.00
2019-01-19T20:47:57.174Z,28.90
2019-01-19T20:50:31.076Z,29.40
2019-01-19T20:53:13.438Z,29.30
2019-01-19T20:55:46.105Z,28.90
2019-01-19T20:58:18.923Z,28.90
2019-01-19T21:00:52.418Z,28.70
2019-01-19T21:03:27.323Z,28.30
2019-01-19T21:06:02.580Z,28.30
2019-01-19T21:08:53.529Z,28.40
2019-01-19T21:11:27.881Z,29.00
2019-01-19T21:14:00.617Z,28.80
2019-01-19T21:16:34.170Z,28.20
2019-01-19T21:19:17.003Z,27.40
2019-01-19T21:21:49.917Z,26.60
2019-01-19T21:24:24.417Z,26.40
2019-01-19T21:27:03.532Z,25.50
2019-01-19T21:29:36.267Z,25.20
2019-01-19T21:32:11.110Z,25.10
2019-01-19T21:34:45.185Z,24.70
2019-01-19T21:37:18.590Z,25.10
2019-01-19T21:39:53.106Z,24.70
2019-01-19T21:42:25.806Z,24.60
2019-01-19T21:44:58.646Z,24.60
2019-01-19T21:47:31.315Z,24.70
2019-01-19T21:50:04.237Z,24.70
2019-01-19T21:52:36.870Z,24.50
2019-01-19T21:55:10.258Z,24.70
2019-01-19T21:57:43.745Z,24.80
2019-01-19T22:00:18.446Z,24.30
2019-01-19T22:02:51.111Z,24.40
2019-01-19T22:05:32.193Z,24.70
2019-01-19T22:08:04.863Z,24.50
2019-01-19T22:10:46.460Z,24.60
2019-01-19T22:13:19.017Z,24.20
2019-01-19T22:15:51.835Z,24.10
2019-01-19T22:18:28.720Z,23.90
2019-01-19T22:21:01.556Z,24.20
2019-01-19T22:23:34.254Z,24.10
2019-01-19T22:26:08.407Z,23.80
2019-01-19T22:28:47.692Z,24.00
2019-01-19T22:31:58.059Z,24.10
2019-01-19T22:34:30.731Z,23.80
2019-01-19T22:37:10.965Z,24.20
2019-01-19T22:39:43.704Z,24.20
2019-01-19T22:42:24.597Z,24.40
2019-01-19T22:44:58.370Z,24.20
2019-01-19T22:47:31.112Z,24.20
2019-01-19T22:50:09.009Z,24.10
2019-01-19T22:52:41.695Z,24.00
2019-01-19T22:55:14.487Z,24.10
2019-01-19T22:57:49.759Z,24.40
2019-01-19T23:01:08.379Z,24.50
2019-01-19T23:03:41.656Z,24.50
2019-01-19T23:06:14.278Z,24.50
2019-01-19T23:08:55.015Z,24.00
2019-01-19T23:11:33.797Z,23.30
2019-01-19T23:14:02.209Z,23.40
2019-01-19T23:16:35.424Z,23.30
2019-01-19T23:19:08.063Z,23.50
2019-01-19T23:21:40.795Z,23.30
2019-01-19T23:24:13.615Z,22.60
2019-01-19T23:26:54.083Z,22.40
2019-01-19T23:29:33.273Z,21.90
2019-01-19T23:32:06.106Z,21.60
2019-01-19T23:34:38.829Z,21.30
2019-01-19T23:37:11.586Z,21.10
2019-01-19T23:39:50.711Z,21.00
2019-01-19T23:42:23.350Z,20.80
2019-01-19T23:45:02.452Z,20.70
2019-01-19T23:47:35.163Z,20.60
2019-01-19T23:50:10.546Z,20.40
2019-01-19T23:52:43.218Z,20.20
2019-01-19T23:55:16.063Z,20.10
2019-01-19T23:57:48.727Z,20.00
